createdAt,value
2022-12-09T00:00:45.335Z,1.81
2022-12-09T00:03:23.809Z,1.76
2022-12-09T00:05:55.880Z,1.76
2022-12-09T00:08:29.394Z,2.01
2022-12-09T00:11:03.089Z,1.73
2022-12-09T00:13:38.834Z,1.83
2022-12-09T00:16:17.617Z,1.93
2022-12-09T00:18:53.002Z,1.79
2022-12-09T00:21:29.821Z,1.68
2022-12-09T00:24:08.090Z,1.79
2022-12-09T00:26:40.413Z,1.63
2022-12-09T00:29:13.738Z,1.65
2022-12-09T00:31:50.435Z,1.54
2022-12-09T00:34:27.466Z,1.54
2022-12-09T00:36:59.666Z,1.57
2022-12-09T00:39:31.961Z,1.59
2022-12-09T00:42:03.828Z,1.52
2022-12-09T00:44:36.487Z,1.63
2022-12-09T00:47:12.661Z,1.64
2022-12-09T00:49:45.360Z,1.74
2022-12-09T00:52:17.007Z,1.71
2022-12-09T00:54:49.403Z,1.66
2022-12-09T00:57:23.723Z,1.61
2022-12-09T00:59:55.618Z,1.73
2022-12-09T01:02:32.321Z,1.67
2022-12-09T01:05:04.987Z,1.71
2022-12-09T01:07:38.174Z,1.49
2022-12-09T01:10:11.832Z,1.55
2022-12-09T01:12:43.590Z,1.58
2022-12-09T01:15:15.444Z,1.52
2022-12-09T01:17:50.320Z,1.38
2022-12-09T01:20:22.319Z,1.41
2022-12-09T01:22:56.206Z,1.52
2022-12-09T01:25:30.259Z,1.48
2022-12-09T01:28:04.601Z,1.58
2022-12-09T01:30:36.110Z,1.39
2022-12-09T01:33:10.227Z,1.44
2022-12-09T01:35:44.754Z,1.41
2022-12-09T01:38:15.956Z,1.65
2022-12-09T01:40:49.422Z,1.61
2022-12-09T01:43:22.055Z,1.49
2022-12-09T01:45:54.814Z,1.29
2022-12-09T01:48:38.450Z,1.63
2022-12-09T01:51:16.408Z,1.33
2022-12-09T01:53:50.977Z,1.27
2022-12-09T01:56:28.652Z,1.31
2022-12-09T01:59:07.226Z,1.30
2022-12-09T02:01:41.730Z,1.26
2022-12-09T02:04:18.746Z,1.37
2022-12-09T02:06:50.643Z,1.46
2022-12-09T02:09:22.289Z,1.64
2022-12-09T02:12:10.582Z,1.64
2022-12-09T02:14:46.243Z,1.56
2022-12-09T02:17:39.419Z,1.70
2022-12-09T02:20:23.730Z,1.80
2022-12-09T02:23:03.671Z,1.87
2022-12-09T02:25:43.458Z,1.79
2022-12-09T02:28:52.204Z,1.87
2022-12-09T02:31:46.867Z,2.11
2022-12-09T02:34:23.300Z,2.09
2022-12-09T02:37:06.243Z,2.30
2022-12-09T02:39:46.673Z,2.02
2022-12-09T02:42:22.274Z,1.95
2022-12-09T02:44:55.896Z,2.32
2022-12-09T02:47:32.786Z,2.26
2022-12-09T02:50:13.609Z,2.41
2022-12-09T02:52:49.098Z,2.26
2022-12-09T02:55:23.461Z,2.48
2022-12-09T02:58:01.620Z,2.35
2022-12-09T03:00:34.156Z,2.43
2022-12-09T03:03:09.723Z,2.67
2022-12-09T03:05:52.637Z,2.38
2022-12-09T03:08:34.744Z,2.53
2022-12-09T03:11:11.510Z,2.82
2022-12-09T03:13:51.835Z,2.73
2022-12-09T03:16:35.894Z,2.62
2022-12-09T03:19:21.475Z,2.59
2022-12-09T03:22:00.371Z,2.63
2022-12-09T03:24:40.789Z,2.79
2022-12-09T03:27:23.062Z,2.76
2022-12-09T03:30:01.492Z,3.21
2022-12-09T03:32:45.295Z,2.82
2022-12-09T03:35:24.621Z,2.72
2022-12-09T03:38:02.528Z,2.60
2022-12-09T03:40:37.531Z,2.67
2022-12-09T03:43:16.387Z,2.58
2022-12-09T03:45:49.101Z,2.64
2022-12-09T03:48:21.521Z,2.75
2022-12-09T03:50:59.031Z,2.46
2022-12-09T03:53:41.942Z,2.99
2022-12-09T03:56:21.057Z,2.51
2022-12-09T03:58:57.252Z,2.96
2022-12-09T04:01:31.397Z,2.65
2022-12-09T04:04:04.079Z,2.76
2022-12-09T04:06:36.423Z,3.14
2022-12-09T04:09:13.933Z,2.74
2022-12-09T04:11:47.553Z,2.72
2022-12-09T04:14:21.194Z,2.74
2022-12-09T04:17:05.584Z,2.62
2022-12-09T04:19:38.186Z,2.59
2022-12-09T04:22:10.522Z,2.79
2022-12-09T04:24:45.451Z,2.84
2022-12-09T04:27:17.676Z,2.90
2022-12-09T04:29:49.922Z,3.05
2022-12-09T04:32:22.518Z,2.94
2022-12-09T04:34:55.524Z,2.86
2022-12-09T04:37:27.375Z,2.70
2022-12-09T04:40:02.449Z,2.83
2022-12-09T04:42:34.698Z,2.77
2022-12-09T04:45:07.067Z,2.90
2022-12-09T04:47:39.107Z,2.80
2022-12-09T04:50:12.232Z,3.21
2022-12-09T04:52:44.592Z,3.25
2022-12-09T04:55:19.401Z,2.78
2022-12-09T04:57:51.500Z,2.88
2022-12-09T05:00:24.730Z,2.90
2022-12-09T05:06:12.765Z,2.64
2022-12-09T05:08:46.536Z,2.86
2022-12-09T05:11:24.409Z,2.76
2022-12-09T05:13:57.283Z,2.72
2022-12-09T05:16:29.573Z,2.51
2022-12-09T05:19:03.210Z,2.69
2022-12-09T05:21:35.697Z,2.60
2022-12-09T05:24:08.287Z,2.74
2022-12-09T05:26:43.497Z,2.72
2022-12-09T05:29:20.799Z,2.33
2022-12-09T05:31:55.934Z,2.16
2022-12-09T05:34:28.324Z,1.99
2022-12-09T05:37:01.189Z,2.51
2022-12-09T05:39:33.820Z,2.29
2022-12-09T05:42:09.346Z,2.24
2022-12-09T05:44:43.836Z,2.23
2022-12-09T05:47:16.297Z,2.32
2022-12-09T05:49:48.407Z,2.40
2022-12-09T05:52:20.675Z,2.46
2022-12-09T05:54:52.645Z,2.90
2022-12-09T05:57:27.605Z,2.90
2022-12-09T06:00:00.130Z,2.68
2022-12-09T06:02:34.067Z,3.04
2022-12-09T06:05:07.076Z,2.78
2022-12-09T06:07:40.754Z,2.84
2022-12-09T06:10:14.480Z,2.90
2022-12-09T06:15:37.981Z,2.79
2022-12-09T06:18:09.955Z,2.84
2022-12-09T06:20:43.141Z,3.21
2022-12-09T06:23:15.477Z,2.84
2022-12-09T06:25:48.426Z,2.90
2022-12-09T06:28:23.376Z,3.05
2022-12-09T06:30:55.647Z,2.82
2022-12-09T06:33:57.323Z,2.95
2022-12-09T06:36:19.639Z,3.18
2022-12-09T06:38:51.995Z,2.88
2022-12-09T06:41:24.430Z,3.05
2022-12-09T06:44:00.800Z,2.95
2022-12-09T06:46:35.970Z,2.68
2022-12-09T06:49:08.066Z,3.03
2022-12-09T06:51:39.872Z,2.80
2022-12-09T06:54:12.216Z,2.79
2022-12-09T06:56:44.212Z,2.91
2022-12-09T06:59:19.011Z,2.85
2022-12-09T07:01:50.956Z,3.17
2022-12-09T07:04:23.324Z,3.00
2022-12-09T07:06:55.308Z,2.78
2022-12-09T07:09:27.895Z,2.99
2022-12-09T07:15:26.522Z,2.77
2022-12-09T07:18:00.444Z,2.81
2022-12-09T07:20:32.002Z,2.90
2022-12-09T07:23:04.175Z,2.59
2022-12-09T07:25:36.096Z,2.90
2022-12-09T07:28:08.080Z,2.88
2022-12-09T07:30:43.396Z,2.43
2022-12-09T07:33:17.376Z,2.44
2022-12-09T07:35:49.618Z,2.55
2022-12-09T07:38:21.796Z,2.53
2022-12-09T07:40:56.160Z,2.63
2022-12-09T07:43:28.934Z,2.77
2022-12-09T07:46:03.410Z,2.74
2022-12-09T07:48:36.146Z,2.64
2022-12-09T07:51:09.672Z,2.94
2022-12-09T07:53:56.337Z,3.19
2022-12-09T07:56:30.227Z,3.50
2022-12-09T07:59:04.047Z,3.15
2022-12-09T08:01:40.095Z,2.87
2022-12-09T08:04:13.420Z,2.96
2022-12-09T08:06:45.599Z,2.67
2022-12-09T08:09:17.797Z,2.59
2022-12-09T08:11:49.685Z,2.60
2022-12-09T08:14:21.653Z,2.73
2022-12-09T08:16:57.167Z,3.19
2022-12-09T08:19:31.299Z,2.99
2022-12-09T08:22:03.065Z,3.14
2022-12-09T08:30:30.502Z,3.11
2022-12-09T08:33:11.418Z,2.96
2022-12-09T08:35:46.379Z,2.90
2022-12-09T08:43:39.436Z,3.12
2022-12-09T08:46:15.543Z,2.92
2022-12-09T08:48:52.778Z,2.81
2022-12-09T08:54:22.583Z,3.09
2022-12-09T08:56:57.800Z,2.97
2022-12-09T08:59:29.526Z,2.58
2022-12-09T09:02:04.867Z,2.68
2022-12-09T09:07:41.715Z,2.84
2022-12-09T09:10:14.934Z,2.95
2022-12-09T09:12:47.694Z,2.95
2022-12-09T09:15:20.808Z,2.86
2022-12-09T09:18:04.714Z,3.07
2022-12-09T09:20:48.467Z,2.80
2022-12-09T09:23:22.902Z,2.88
2022-12-09T09:25:55.004Z,2.73
2022-12-09T09:28:31.485Z,2.94
2022-12-09T09:31:05.150Z,2.99
2022-12-09T09:33:38.911Z,2.66
2022-12-09T09:36:20.997Z,2.91
2022-12-09T09:38:55.283Z,2.65
2022-12-09T09:41:41.857Z,2.87
2022-12-09T09:44:23.468Z,2.71
2022-12-09T09:46:57.679Z,2.93
2022-12-09T09:49:39.802Z,2.82
2022-12-09T09:52:20.625Z,2.78
2022-12-09T09:54:54.822Z,2.65
2022-12-09T09:57:33.446Z,3.15
2022-12-09T10:03:08.082Z,2.86
2022-12-09T10:05:52.883Z,2.75
2022-12-09T10:08:36.061Z,2.76
2022-12-09T10:11:21.231Z,2.74
2022-12-09T10:13:58.489Z,2.73
2022-12-09T10:16:45.581Z,3.06
2022-12-09T10:19:25.213Z,3.29
2022-12-09T10:21:59.919Z,3.23
2022-12-09T10:24:40.297Z,3.22
2022-12-09T10:27:22.515Z,2.88
2022-12-09T10:29:59.954Z,3.10
2022-12-09T10:32:35.598Z,3.21
2022-12-09T10:35:17.882Z,3.17
2022-12-09T10:37:52.705Z,3.24
2022-12-09T10:40:39.467Z,3.49
2022-12-09T10:43:43.200Z,2.99
2022-12-09T10:46:25.571Z,2.91
2022-12-09T10:49:04.200Z,2.80
2022-12-09T10:51:39.746Z,2.98
2022-12-09T10:54:22.992Z,2.87
2022-12-09T10:57:23.665Z,3.31
2022-12-09T11:00:06.799Z,2.96
2022-12-09T11:02:42.813Z,2.78
2022-12-09T11:05:29.976Z,2.54
2022-12-09T11:08:02.212Z,2.99
2022-12-09T11:10:43.747Z,2.92
2022-12-09T11:13:23.751Z,3.12
2022-12-09T11:16:02.124Z,2.98
2022-12-09T11:18:40.476Z,3.02
2022-12-09T11:21:33.464Z,2.84
2022-12-09T11:24:06.040Z,2.65
2022-12-09T11:26:41.906Z,2.41
2022-12-09T11:29:22.194Z,2.21
2022-12-09T11:31:54.718Z,2.42
2022-12-09T11:34:30.817Z,2.48
2022-12-09T11:37:03.360Z,3.04
2022-12-09T11:39:37.681Z,2.82
2022-12-09T11:42:22.809Z,2.89
2022-12-09T11:45:02.111Z,3.02
2022-12-09T11:48:13.872Z,3.05
2022-12-09T11:50:33.306Z,3.30
2022-12-09T11:53:19.434Z,3.63
2022-12-09T11:55:59.472Z,3.49
2022-12-09T11:58:39.163Z,3.19
2022-12-09T12:01:20.725Z,3.25
2022-12-09T12:04:01.101Z,3.58
2022-12-09T12:06:37.991Z,3.27
2022-12-09T12:09:18.934Z,2.93
2022-12-09T12:12:00.907Z,3.13
2022-12-09T12:14:33.739Z,3.12
2022-12-09T12:17:15.802Z,3.02
2022-12-09T12:19:56.842Z,2.82
2022-12-09T12:22:57.211Z,2.82
2022-12-09T12:25:49.523Z,3.28
2022-12-09T12:28:58.050Z,3.48
2022-12-09T12:31:50.855Z,3.06
2022-12-09T12:34:39.186Z,3.29
2022-12-09T12:37:29.888Z,3.34
2022-12-09T12:40:12.706Z,3.44
2022-12-09T12:43:09.520Z,3.37
2022-12-09T12:46:02.668Z,3.15
2022-12-09T12:48:47.924Z,3.25
2022-12-09T12:51:36.276Z,3.29
2022-12-09T12:54:27.903Z,2.93
2022-12-09T12:57:10.038Z,3.06
2022-12-09T12:59:52.732Z,3.32
2022-12-09T13:02:37.642Z,3.33
2022-12-09T13:05:23.994Z,3.40
2022-12-09T13:08:05.586Z,3.45
2022-12-09T13:10:43.619Z,3.33
2022-12-09T13:13:22.417Z,3.23
2022-12-09T13:15:57.811Z,3.47
2022-12-09T13:18:34.019Z,3.50
2022-12-09T13:21:10.368Z,3.67
2022-12-09T13:24:01.590Z,3.26
2022-12-09T13:26:47.973Z,3.10
2022-12-09T13:29:37.428Z,3.37
2022-12-09T13:32:22.738Z,3.55
2022-12-09T13:34:57.614Z,3.51
2022-12-09T13:37:37.473Z,3.24
2022-12-09T13:40:31.420Z,3.46
2022-12-09T13:43:13.797Z,3.26
2022-12-09T13:45:58.823Z,3.22
2022-12-09T13:48:51.969Z,3.19
2022-12-09T13:51:27.811Z,3.24
2022-12-09T13:54:07.678Z,2.75
2022-12-09T13:56:44.590Z,2.67
2022-12-09T13:59:42.033Z,2.39
2022-12-09T14:02:26.954Z,2.61
2022-12-09T14:05:09.135Z,2.56
2022-12-09T14:07:46.052Z,2.70
2022-12-09T14:10:44.109Z,2.28
2022-12-09T14:13:30.392Z,2.25
2022-12-09T14:16:36.405Z,2.51
2022-12-09T14:19:41.164Z,2.48
2022-12-09T14:22:37.913Z,2.53
2022-12-09T14:25:39.577Z,2.52
2022-12-09T14:28:46.990Z,2.81
2022-12-09T14:32:01.995Z,2.59
2022-12-09T14:34:44.967Z,2.35
2022-12-09T14:38:01.659Z,2.28
2022-12-09T14:40:49.614Z,2.19
2022-12-09T14:43:48.475Z,2.26
2022-12-09T14:46:27.734Z,2.27
2022-12-09T14:49:04.930Z,2.13
2022-12-09T14:51:41.000Z,2.45
2022-12-09T14:54:21.028Z,2.06
2022-12-09T14:56:58.403Z,1.97
2022-12-09T14:59:35.335Z,1.83
2022-12-09T15:02:23.919Z,1.83
2022-12-09T15:04:57.310Z,1.42
2022-12-09T15:07:49.226Z,1.18
2022-12-09T15:10:29.387Z,1.21
2022-12-09T15:13:05.998Z,1.37
2022-12-09T15:15:43.159Z,1.51
2022-12-09T15:18:22.516Z,1.68
2022-12-09T15:20:57.348Z,1.68
2022-12-09T15:23:35.150Z,1.37
2022-12-09T15:26:09.673Z,1.59
2022-12-09T15:28:49.909Z,1.61
2022-12-09T15:31:27.298Z,1.64
2022-12-09T15:34:02.947Z,1.50
2022-12-09T15:36:40.269Z,1.48
2022-12-09T15:39:16.876Z,1.24
2022-12-09T15:42:03.632Z,1.55
2022-12-09T15:44:44.197Z,1.64
2022-12-09T15:47:23.565Z,1.61
2022-12-09T15:50:04.171Z,1.48
2022-12-09T15:52:42.230Z,1.37
2022-12-09T15:55:19.669Z,1.48
2022-12-09T15:57:55.548Z,1.40
2022-12-09T16:00:28.628Z,1.24
2022-12-09T16:03:03.539Z,1.08
2022-12-09T16:05:41.619Z,1.02
2022-12-09T16:08:14.897Z,0.96
2022-12-09T16:10:54.611Z,0.58
2022-12-09T16:13:26.896Z,0.38
2022-12-09T16:16:01.090Z,0.46
2022-12-09T16:18:39.213Z,0.70
2022-12-09T16:21:30.302Z,0.87
2022-12-09T16:24:10.656Z,1.07
2022-12-09T16:26:48.796Z,1.05
2022-12-09T16:29:27.598Z,0.93
2022-12-09T16:32:21.333Z,0.74
2022-12-09T16:34:58.191Z,0.96
2022-12-09T16:37:40.514Z,1.27
2022-12-09T16:40:42.090Z,1.21
2022-12-09T16:43:23.792Z,1.02
2022-12-09T16:45:57.667Z,0.91
2022-12-09T16:48:32.957Z,1.23
2022-12-09T16:51:17.916Z,1.03
2022-12-09T16:53:51.411Z,1.29
2022-12-09T16:56:24.975Z,1.42
2022-12-09T16:58:59.522Z,1.55
2022-12-09T17:01:35.455Z,1.76
2022-12-09T17:04:15.599Z,1.79
2022-12-09T17:06:50.683Z,1.90
2022-12-09T17:09:23.658Z,1.91
2022-12-09T17:11:56.120Z,1.78
2022-12-09T17:14:39.818Z,1.63
2022-12-09T17:17:11.935Z,1.37
2022-12-09T17:19:45.140Z,1.39
2022-12-09T17:22:20.558Z,1.19
2022-12-09T17:24:53.368Z,1.00
2022-12-09T17:27:25.542Z,0.95
2022-12-09T17:29:58.178Z,1.06
2022-12-09T17:32:30.540Z,0.76
2022-12-09T17:35:07.435Z,1.18
2022-12-09T17:37:43.061Z,0.79
2022-12-09T17:40:15.607Z,0.83
2022-12-09T17:42:47.434Z,0.95
2022-12-09T17:45:19.771Z,1.26
2022-12-09T17:47:52.013Z,1.23
2022-12-09T17:50:23.873Z,1.16
2022-12-09T17:52:59.088Z,0.95
2022-12-09T17:55:30.743Z,1.48
2022-12-09T17:58:01.930Z,1.76
2022-12-09T18:00:34.107Z,1.31
2022-12-09T18:03:06.153Z,1.33
2022-12-09T18:05:40.251Z,1.05
2022-12-09T18:08:15.038Z,1.28
2022-12-09T18:10:47.536Z,1.29
2022-12-09T18:13:18.882Z,1.09
2022-12-09T18:15:54.297Z,1.04
2022-12-09T18:18:28.512Z,1.00
2022-12-09T18:21:10.617Z,0.59
2022-12-09T18:23:48.588Z,1.07
2022-12-09T18:26:27.104Z,1.29
2022-12-09T18:29:02.498Z,1.33
2022-12-09T18:31:34.587Z,1.40
2022-12-09T18:34:06.128Z,1.20
2022-12-09T18:36:37.906Z,0.83
2022-12-09T18:39:12.996Z,0.70
2022-12-09T18:41:46.191Z,1.03
2022-12-09T18:44:19.330Z,0.67
2022-12-09T18:46:53.417Z,0.86
2022-12-09T18:49:28.642Z,0.61
2022-12-09T18:52:00.219Z,0.68
2022-12-09T18:54:36.928Z,0.76
2022-12-09T18:57:08.692Z,0.70
2022-12-09T18:59:40.195Z,0.73
2022-12-09T19:02:14.851Z,0.75
2022-12-09T19:04:45.955Z,0.57
2022-12-09T19:07:18.473Z,0.60
2022-12-09T19:09:52.600Z,0.58
2022-12-09T19:12:47.068Z,0.57
2022-12-09T19:40:43.574Z,0.42
2022-12-09T19:43:38.656Z,0.37
2022-12-09T19:46:14.345Z,0.63
2022-12-09T19:48:47.703Z,0.70
2022-12-09T19:51:24.839Z,0.72
2022-12-09T19:53:59.579Z,0.50
2022-12-09T19:56:34.568Z,0.49
2022-12-09T19:59:08.478Z,0.83
2022-12-09T20:01:42.523Z,0.64
2022-12-09T20:07:10.996Z,0.84
2022-12-09T20:09:43.719Z,0.84
2022-12-09T20:12:18.843Z,0.90
2022-12-09T20:15:04.309Z,0.65
2022-12-09T20:17:36.012Z,0.86
2022-12-09T20:20:12.419Z,1.00
2022-12-09T20:22:44.218Z,1.02
2022-12-09T20:25:18.317Z,1.28
2022-12-09T20:27:52.533Z,0.93
2022-12-09T20:30:24.870Z,1.21
2022-12-09T20:32:58.595Z,1.11
2022-12-09T20:35:30.729Z,1.23
2022-12-09T20:38:02.438Z,0.99
2022-12-09T20:40:39.070Z,0.64
2022-12-09T20:46:32.621Z,0.84
2022-12-09T20:49:04.970Z,1.18
2022-12-09T20:51:39.614Z,1.04
2022-12-09T20:54:14.849Z,0.70
2022-12-09T20:56:46.914Z,0.65
2022-12-09T20:59:18.693Z,0.66
2022-12-09T21:02:18.708Z,0.66
2022-12-09T21:04:53.697Z,0.80
2022-12-09T21:07:25.351Z,1.05
2022-12-09T21:09:57.588Z,1.48
2022-12-09T21:12:29.145Z,1.36
2022-12-09T21:15:02.992Z,0.92
2022-12-09T21:17:35.879Z,1.23
2022-12-09T21:20:13.489Z,1.17
2022-12-09T21:22:55.071Z,0.80
2022-12-09T21:25:38.358Z,0.84
2022-12-09T21:28:10.479Z,1.19
2022-12-09T21:30:43.700Z,1.11
2022-12-09T21:33:16.840Z,1.01
2022-12-09T21:35:51.756Z,1.06
2022-12-09T21:38:23.208Z,0.96
2022-12-09T21:40:57.216Z,1.13
2022-12-09T21:43:28.661Z,0.70
2022-12-09T21:46:00.966Z,1.06
2022-12-09T21:48:35.726Z,1.23
2022-12-09T21:51:12.556Z,1.53
2022-12-09T21:53:45.428Z,1.28
2022-12-09T21:56:23.267Z,1.19
2022-12-09T21:58:59.477Z,1.15
2022-12-09T22:01:33.601Z,1.32
2022-12-09T22:04:08.358Z,1.39
2022-12-09T22:06:43.262Z,1.42
2022-12-09T22:09:15.495Z,0.98
2022-12-09T22:11:51.487Z,0.93
2022-12-09T22:14:23.022Z,1.00
2022-12-09T22:16:54.764Z,1.18
2022-12-09T22:19:27.787Z,0.92
2022-12-09T22:22:07.418Z,1.22
2022-12-09T22:24:40.226Z,1.13
2022-12-09T22:27:12.203Z,1.06
2022-12-09T22:29:43.497Z,1.03
2022-12-09T22:32:19.628Z,0.80
2022-12-09T22:34:51.834Z,1.21
2022-12-09T22:37:44.184Z,1.19
2022-12-09T22:40:17.032Z,0.81
2022-12-09T22:42:50.831Z,1.05
2022-12-09T22:45:23.250Z,0.87
2022-12-09T22:47:57.384Z,0.92
2022-12-09T22:50:28.434Z,0.64
2022-12-09T22:53:03.704Z,0.88
2022-12-09T22:55:35.978Z,0.70
2022-12-09T22:58:07.319Z,0.68
2022-12-09T23:00:38.810Z,0.75
2022-12-09T23:03:10.937Z,0.72
2022-12-09T23:05:45.500Z,0.80
2022-12-09T23:08:20.721Z,0.74
2022-12-09T23:10:52.580Z,0.60
2022-12-09T23:13:24.853Z,0.65
2022-12-09T23:15:56.335Z,0.83
2022-12-09T23:18:28.384Z,0.52
2022-12-09T23:21:04.814Z,0.76
2022-12-09T23:23:42.262Z,0.46
2022-12-09T23:26:16.743Z,0.73
2022-12-09T23:28:51.299Z,0.76
2022-12-09T23:31:24.900Z,0.68
2022-12-09T23:33:57.751Z,0.60
2022-12-09T23:36:31.269Z,0.91
2022-12-09T23:39:10.348Z,0.84
2022-12-09T23:41:43.763Z,0.89
2022-12-09T23:44:18.364Z,0.81
2022-12-09T23:46:49.978Z,0.60
2022-12-09T23:49:22.194Z,0.98
2022-12-09T23:51:53.652Z,0.67
2022-12-09T23:54:28.140Z,0.64
2022-12-09T23:56:59.686Z,0.58
2022-12-09T23:59:31.531Z,0.66
